Latest Weather Observations for Warruwi

IDD60801

Issued at 4:35 pm CST Monday 1 September 2014 (issued every 30 minutes, with the page automatically refreshed every 10 minutes)

About weather observations | Map of weather stations | Latest weather observations for NT | Other Formats
Station Details ID: 014401 Name: WARRUWI AIRPORT Lat: -11.65 Lon: 133.38 Height: 19.2 m
Data from the previous 72 hours. | See also: Recent months at Warruwi
Date/Time
CST
Temp
°C
App
Temp
°C
Dew
Point
Rel
Hum
%
Delta-T
°C
Wind Press
QNH
hPa
Press
MSL
hPa
Rain
since 9 am
mm
Dir
 
Spd
km/h
Gust
km/h
Spd
kts
Gust
kts
01/04:30pm 29.1 26.4 10.3 31 10.6 ENE 15 28 8 15 1011.0 1010.8 0.0
01/04:00pm 29.6 27.0 10.7 31 10.8 ENE 15 24 8 13 1010.9 1010.7 0.0
01/03:30pm 30.1 27.2 9.6 28 11.5 E 15 24 8 13 1011.0 1010.8 0.0
01/03:00pm 30.1 26.8 9.6 28 11.5 E 17 28 9 15 1011.2 1011.0 0.0
01/02:30pm 30.4 27.2 9.8 28 11.6 E 17 28 9 15 1011.6 1011.4 0.0
01/02:00pm 30.3 26.5 9.2 27 11.8 E 19 26 10 14 1011.9 1011.7 0.0
01/01:30pm 29.5 25.6 8.5 27 11.6 E 19 26 10 14 1012.6 1012.4 0.0
01/01:00pm 29.3 25.8 8.9 28 11.3 E 17 26 9 14 1013.0 1012.8 0.0
01/12:30pm 29.3 27.3 12.7 36 9.8 E 15 20 8 11 1013.5 1013.3 0.0
01/12:00pm 29.1 26.9 12.1 35 9.9 E 15 20 8 11 1014.0 1013.8 0.0
01/11:30am 28.6 27.4 12.9 38 9.2 E 11 15 6 8 1014.6 1014.4 0.0
01/11:00am 28.3 26.8 13.0 39 9.0 E 13 19 7 10 1015.1 1014.9 0.0
01/10:30am 27.1 26.5 14.5 46 7.6 E 11 17 6 9 1015.5 1015.4 0.0
01/10:00am 26.4 26.9 16.6 55 6.1 ESE 9 15 5 8 1015.6 1015.5 0.0
01/09:30am 25.5 26.2 17.9 63 4.8 SE 11 15 6 8 1015.8 1015.7 0.0
01/09:00am 24.4 26.2 18.8 71 3.6 SE 7 13 4 7 1015.8 1015.7 0.0
01/08:30am 23.7 26.0 19.8 79 2.5 SE 7 11 4 6 1015.5 1015.4 0.0
01/08:00am 22.9 25.5 20.4 86 1.6 SE 7 13 4 7 1015.5 1015.4 0.0
01/07:30am 22.1 25.1 20.9 93 0.8 SSE 6 11 3 6 1015.1 1015.0 0.0
01/07:00am 21.2 23.9 19.5 90 1.1 SSE 4 6 2 3 1014.6 1014.5 0.0
01/06:30am 21.6 24.4 19.7 89 1.2 ESE 4 7 2 4 1014.3 1014.2 0.0
01/06:00am 21.9 24.3 19.6 87 1.5 E 6 11 3 6 1014.2 1014.1 0.0
01/05:30am 22.6 25.2 20.1 86 1.6 ESE 6 9 3 5 1013.9 1013.8 0.0
01/05:00am 23.2 24.8 20.0 82 2.1 E 11 17 6 9 1013.8 1013.7 0.0
01/04:30am 23.3 25.1 20.4 84 1.9 E 11 17 6 9 1013.5 1013.4 0.0
01/04:00am 23.5 24.7 20.0 81 2.3 E 13 19 7 10 1013.4 1013.3 0.0
01/03:30am 23.7 24.9 20.6 83 2.0 E 15 20 8 11 1013.6 1013.5 0.0
01/03:00am 23.9 25.2 20.8 83 2.0 E 15 26 8 14 1013.8 1013.7 0.0
01/02:30am 23.9 26.2 21.4 86 1.6 E 11 17 6 9 1014.0 1013.9 0.0
01/02:00am 23.9 26.1 21.2 85 1.8 ENE 11 17 6 9 1014.1 1014.0 0.0
01/01:30am 23.9 26.1 21.2 85 1.8 ENE 11 20 6 11 1014.1 1014.0 0.0
01/01:00am 23.8 26.5 21.3 86 1.6 ENE 9 19 5 10 1014.1 1014.0 0.0
01/12:30am 23.8 26.3 21.1 85 1.8 ENE 9 13 5 7 1014.0 1013.9 0.0
01/12:00am 23.7 26.6 21.0 85 1.8 ENE 7 11 4 6 1014.0 1013.9 0.0
 
Date/Time
CST
Temp
°C
App
Temp
°C
Dew
Point
Rel
Hum
%
Delta-T
°C
Wind Press
QNH
hPa
Press
MSL
hPa
Rain
since 9 am
mm
Dir
 
Spd
km/h
Gust
km/h
Spd
kts
Gust
kts
31/11:30pm 23.8 26.3 21.1 85 1.8 E 9 13 5 7 1014.0 1013.9 0.0
31/11:00pm 23.9 26.4 21.0 84 1.9 ENE 9 19 5 10 1013.8 1013.7 0.0
31/10:30pm 23.6 26.1 20.3 82 2.1 E 7 11 4 6 1013.6 1013.5 0.0
31/10:00pm 23.7 26.3 20.0 80 2.4 ENE 6 9 3 5 1013.4 1013.3 0.0
31/09:30pm 23.8 26.1 19.9 79 2.5 ENE 7 11 4 6 1013.1 1013.0 0.0
31/09:00pm 23.9 26.3 19.6 77 2.8 E 6 9 3 5 1012.9 1012.8 0.0
31/08:30pm 24.0 26.2 19.3 75 3.0 ENE 6 11 3 6 1012.6 1012.5 0.0
31/08:00pm 24.0 26.1 18.9 73 3.2 ENE 6 11 3 6 1012.4 1012.3 0.0
31/07:30pm 24.2 26.0 18.4 70 3.7 NE 6 9 3 5 1012.0 1011.9 0.0
31/07:00pm 24.6 25.7 18.1 67 4.1 ENE 9 15 5 8 1011.4 1011.3 0.0
31/06:30pm 25.2 26.4 17.4 62 4.9 ENE 7 13 4 7 1011.0 1010.9 0.0
31/06:00pm 25.9 26.0 16.5 56 5.8 E 11 22 6 12 1010.7 1010.6 0.0
31/05:30pm 26.8 26.1 15.5 50 6.9 E 13 24 7 13 1010.6 1010.5 0.0
31/05:00pm 27.4 26.1 14.8 46 7.6 ENE 15 26 8 14 1010.6 1010.5 0.0
31/04:30pm 27.7 26.5 15.0 45 7.7 ENE 15 26 8 14 1010.7 1010.6 0.0
31/04:00pm 28.1 25.7 12.8 38 9.0 ENE 17 30 9 16 1010.8 1010.7 0.0
31/03:30pm 27.9 26.8 15.2 46 7.7 ENE 15 22 8 12 1010.6 1010.5 0.0
31/03:00pm 28.7 27.3 14.5 42 8.6 ENE 15 24 8 13 1010.6 1010.5 0.0
31/02:30pm 29.2 27.4 13.4 38 9.4 E 15 22 8 12 1010.8 1010.7 0.0
31/02:00pm 29.2 27.8 14.6 41 8.9 E 15 22 8 12 1011.1 1011.0 0.0
31/01:30pm 28.9 27.2 14.7 42 8.6 E 17 24 9 13 1011.6 1011.5 0.0
31/01:00pm 28.4 26.8 15.0 44 8.1 E 17 24 9 13 1012.2 1012.1 0.0
31/12:30pm 27.6 26.3 14.9 45 7.7 E 15 24 8 13 1012.7 1012.6 0.0
31/12:00pm 27.3 25.6 14.7 46 7.6 E 17 24 9 13 1013.3 1013.2 0.0
31/11:30am 27.2 26.3 14.9 47 7.4 E 13 19 7 10 1013.7 1013.6 0.0
31/11:00am 27.6 25.9 13.5 41 8.3 ESE 15 20 8 11 1014.2 1014.1 0.0
31/10:30am 26.8 26.1 16.4 53 6.4 SE 15 20 8 11 1014.7 1014.6 0.0
31/10:00am 25.8 25.9 17.4 59 5.3 ESE 13 19 7 10 1015.1 1015.0 0.0
31/09:30am 24.9 25.4 17.4 63 4.7 SE 11 17 6 9 1015.2 1015.1 0.0
31/09:00am 24.6 24.8 16.8 62 4.8 SE 11 15 6 8 1015.1 1015.0 0.0
31/08:30am 23.3 23.2 16.1 64 4.4 SE 11 17 6 9 1014.8 1014.7 0.0
31/08:00am 22.8 23.1 15.9 65 4.2 SE 9 11 5 6 1014.7 1014.6 0.0
31/07:30am 21.9 22.4 15.5 67 3.8 SE 7 11 4 6 1014.4 1014.3 0.0
31/07:00am 21.1 21.5 16.3 74 2.9 SE 9 13 5 7 1014.0 1013.9 0.0
31/06:30am 20.5 21.6 16.5 78 2.4 ESE 6 9 3 5 1013.8 1013.7 0.0
31/06:00am 20.8 21.8 16.8 78 2.4 SE 7 9 4 5 1013.5 1013.4 0.0
31/05:30am 20.8 21.8 16.8 78 2.4 ESE 7 11 4 6 1013.2 1013.1 0.0
31/05:00am 20.7 22.1 17.7 83 1.8 ESE 7 11 4 6 1013.1 1013.0 0.0
31/04:30am 20.9 22.5 18.3 85 1.6 SE 7 9 4 5 1013.2 1013.1 0.0
31/04:00am 21.1 23.2 19.0 88 1.3 SSE 6 7 3 4 1013.4 1013.3 0.0
31/03:30am 22.2 24.1 18.6 80 2.3 SSE 6 9 3 5 1013.3 1013.2 0.0
31/03:00am 23.1 23.1 17.3 70 3.6 ESE 13 15 7 8 1013.3 1013.2 0.0
31/02:30am 23.4 24.3 18.5 74 3.1 E 11 17 6 9 1013.3 1013.2 0.0
31/02:00am 23.7 24.3 18.6 73 3.2 E 13 20 7 11 1013.4 1013.3 0.0
31/01:30am 23.6 24.8 19.9 80 2.4 E 13 19 7 10 1013.6 1013.5 0.0
31/01:00am 23.8 24.8 20.3 81 2.3 E 15 20 8 11 1013.7 1013.6 0.0
31/12:30am 23.8 24.5 20.5 82 2.1 E 17 24 9 13 1014.0 1013.9 0.0
31/12:00am 23.7 25.3 20.8 84 1.9 E 13 20 7 11 1014.2 1014.1 0.0
 
Date/Time
CST
Temp
°C
App
Temp
°C
Dew
Point
Rel
Hum
%
Delta-T
°C
Wind Press
QNH
hPa
Press
MSL
hPa
Rain
since 9 am
mm
Dir
 
Spd
km/h
Gust
km/h
Spd
kts
Gust
kts
30/11:30pm 23.6 25.6 20.7 84 1.9 ESE 11 17 6 9 1014.3 1014.2 0.0
30/11:00pm 23.9 25.4 20.6 82 2.2 E 13 20 7 11 1014.1 1014.0 0.0
30/10:30pm 23.7 26.1 20.8 84 1.9 E 9 13 5 7 1013.8 1013.7 0.0
30/10:00pm 23.7 26.1 20.8 84 1.9 E 9 13 5 7 1013.7 1013.6 0.0
30/09:30pm 23.6 26.5 20.7 84 1.9 E 6 9 3 5 1013.5 1013.4 0.0
30/09:00pm 23.6 26.3 20.7 84 1.9 ENE 7 11 4 6 1013.4 1013.3 0.0
30/08:30pm 23.4 26.1 20.3 83 2.0 E 6 9 3 5 1013.1 1013.0 0.0
30/08:00pm 23.6 26.2 20.1 81 2.3 ENE 6 9 3 5 1012.8 1012.7 0.0
30/07:30pm 23.8 26.3 19.9 79 2.5 ENE 6 9 3 5 1012.5 1012.4 0.0
30/07:00pm 24.1 26.6 19.8 77 2.8 ENE 6 13 3 7 1012.4 1012.3 0.0
30/06:30pm 24.4 26.0 19.2 73 3.3 ENE 9 15 5 8 1012.0 1011.9 0.0
30/06:00pm 25.2 25.9 18.9 68 4.0 ENE 13 20 7 11 1011.6 1011.5 0.0
30/05:30pm 26.0 26.4 18.2 62 4.9 ENE 13 22 7 12 1011.3 1011.2 0.0
30/05:00pm 26.5 26.3 17.6 58 5.6 ENE 15 24 8 13 1011.3 1011.2 0.0
30/04:30pm 27.8 26.4 14.4 43 8.1 ENE 15 24 8 13 1011.2 1011.1 0.0
30/04:00pm 28.3 27.3 14.5 43 8.3 ENE 13 24 7 13 1011.2 1011.1 0.0
30/03:30pm 28.5 25.8 11.6 35 9.7 ENE 17 26 9 14 1011.3 1011.2 0.0
30/03:00pm 29.2 26.4 9.9 30 10.9 ENE 15 26 8 14 1011.4 1011.3 0.0
30/02:30pm 29.2 26.6 10.8 32 10.5 ENE 15 26 8 14 1011.8 1011.7 0.0
30/02:00pm 29.0 25.7 9.7 30 10.8 E 17 24 9 13 1012.3 1012.2 0.0
30/01:30pm 29.2 25.5 9.3 29 11.1 E 19 28 10 15 1012.8 1012.7 0.0
30/01:00pm 28.5 25.0 10.2 32 10.3 E 19 26 10 14 1013.5 1013.4 0.0
30/12:30pm 27.8 26.3 14.1 43 8.2 E 15 20 8 11 1014.2 1014.1 0.0
30/12:00pm 26.7 25.7 14.5 47 7.3 E 13 20 7 11 1014.8 1014.7 0.0
30/11:30am 26.9 25.9 14.6 46 7.4 E 13 19 7 10 1015.3 1015.2 0.0
30/11:00am 26.8 25.4 15.5 50 6.9 ESE 17 24 9 13 1015.8 1015.7 0.0
30/10:30am 26.3 25.9 17.1 57 5.7 ESE 15 20 8 11 1016.1 1016.0 0.0
30/10:00am 25.3 24.7 16.7 59 5.3 ESE 15 26 8 14 1016.2 1016.1 0.0
30/09:30am 24.3 23.5 16.0 60 5.0 ESE 15 22 8 12 1016.2 1016.1 0.0
30/09:00am 23.6 22.7 14.9 58 5.2 SE 13 20 7 11 1016.3 1016.2 0.0
30/08:30am 23.6 22.9 14.3 56 5.5 SSE 11 19 6 10 1016.1 1016.0 0.0
30/08:00am 23.2 22.7 13.9 56 5.4 SE 9 13 5 7 1015.8 1015.7 0.0
30/07:30am 22.2 22.4 14.6 62 4.5 SE 7 11 4 6 1015.4 1015.3 0.0
30/07:00am 20.2 20.8 15.2 73 2.9 SSE 6 7 3 4 1015.2 1015.1 0.0
30/06:30am 19.7 20.5 15.8 78 2.3 SSE 6 9 3 5 1014.9 1014.8 0.0
30/06:00am 18.4 20.2 15.6 84 1.6 CALM 0 4 0 2 1014.6 1014.5 0.0
30/05:30am 18.9 20.3 16.5 86 1.4 SE 4 6 2 3 1014.2 1014.1 0.0
30/05:00am 19.7 21.3 17.8 89 1.2 SE 6 7 3 4 1014.0 1013.9 0.0
30/04:30am 20.3 22.8 19.0 92 0.8 S 4 6 2 3 1013.8 1013.7 0.0
30/04:00am 20.4 22.8 18.7 90 1.1 SSE 4 6 2 3 1013.9 1013.8 0.0
30/03:30am 20.8 23.1 19.5 92 0.8 SSE 6 7 3 4 1013.8 1013.7 0.0
30/03:00am 20.5 23.4 19.0 91 0.9 SE 2 4 1 2 1014.1 1014.0 0.0
30/02:30am 20.5 23.7 18.8 90 1.1 CALM 0 0 0 0 1014.2 1014.1 0.0
30/02:00am 20.8 24.0 18.9 89 1.2 CALM 0 0 0 0 1014.3 1014.2 0.0
30/01:30am 21.0 24.2 18.9 88 1.3 CALM 0 2 0 1 1014.5 1014.4 0.0
30/01:00am 21.0 23.6 18.4 85 1.6 SE 2 4 1 2 1014.8 1014.7 0.0
30/12:30am 21.4 23.8 18.8 85 1.6 SSE 4 6 2 3 1014.8 1014.7 0.0
30/12:00am 21.6 24.2 19.2 86 1.5 SSE 4 6 2 3 1014.8 1014.7 0.0
 
Date/Time
CST
Temp
°C
App
Temp
°C
Dew
Point
Rel
Hum
%
Delta-T
°C
Wind Press
QNH
hPa
Press
MSL
hPa
Rain
since 9 am
mm
Dir
 
Spd
km/h
Gust
km/h
Spd
kts
Gust
kts
29/11:30pm 21.4 24.6 18.8 85 1.6 CALM 0 4 0 2 1014.8 1014.7 0.0
29/11:00pm 21.5 24.4 18.3 82 2.0 CALM 0 0 0 0 1014.7 1014.6 0.0
29/10:30pm 22.1 25.0 18.3 79 2.4 CALM 0 0 0 0 1014.4 1014.3 0.0
29/10:00pm 23.0 25.4 18.7 77 2.7 E 4 6 2 3 1014.3 1014.2 0.0
29/09:30pm 23.1 25.1 18.8 77 2.7 ENE 6 9 3 5 1014.0 1013.9 0.0
29/09:00pm 23.3 25.3 18.8 76 2.8 ENE 6 9 3 5 1013.9 1013.8 0.0
29/08:30pm 23.5 25.3 18.4 73 3.2 ENE 6 9 3 5 1013.5 1013.4 0.0
29/08:00pm 23.7 25.3 17.9 70 3.6 E 6 9 3 5 1013.3 1013.2 0.0
29/07:30pm 23.9 24.8 16.7 64 4.4 E 7 11 4 6 1013.4 1013.3 0.0
29/07:00pm 24.4 24.9 15.6 58 5.3 ENE 7 13 4 7 1013.2 1013.1 0.0
29/06:30pm 25.1 25.1 14.3 51 6.4 ENE 7 13 4 7 1012.8 1012.7 0.0
29/06:00pm 26.0 25.2 12.8 44 7.7 ENE 9 19 5 10 1012.6 1012.5 0.0
29/05:30pm 26.9 25.3 11.4 38 8.8 ENE 11 20 6 11 1012.4 1012.3 0.0
29/05:00pm 28.3 26.8 10.5 33 10.1 ENE 9 17 5 9 1012.3 1012.2 0.0

Other Formats:

Comma delimited format used in spreadsheet applications
http://www.bom.gov.au/fwo/IDD60801/IDD60801.94139.axf

JavaScript Object Notation format (JSON) in row-major order
http://www.bom.gov.au/fwo/IDD60801/IDD60801.94139.json